Time;durP1;ratioP1;P1;durP2;ratioP2;P2;SDS_P1;SDS_P2;PMS_P1;PMS_P2;Temp;Humidity;BMP_temperature;BMP_pressure;BME280_temperature;BME280_humidity;BME280_pressure;Samples;Min_cycle;Max_cycle;Signal;HPM_P1;HPM_P2
2022/02/16 00:01:37;;;;;;;2.40;1.67;;;16.70;49.40;;;;;;5017256;28;20453;-84
2022/02/16 00:04:05;;;;;;;1.53;1.43;;;16.70;49.40;;;;;;5015655;28;20440;-84
2022/02/16 00:06:33;;;;;;;1.63;1.50;;;16.70;49.30;;;;;;5014090;28;20464;-84
2022/02/16 00:09:01;;;;;;;2.20;1.67;;;16.70;49.30;;;;;;5015904;28;20441;-85
2022/02/16 00:11:28;;;;;;;1.53;1.33;;;16.70;49.30;;;;;;5018505;28;20418;-85
2022/02/16 00:13:56;;;;;;;2.40;1.80;;;16.70;49.40;;;;;;5016656;28;20484;-84
2022/02/16 00:16:28;;;;;;;1.60;1.50;;;16.70;49.40;;;;;;5017153;28;20409;-84
2022/02/16 00:18:56;;;;;;;2.67;1.90;;;16.70;49.50;;;;;;5017465;28;20453;-85
2022/02/16 00:21:24;;;;;;;2.77;1.83;;;16.80;49.50;;;;;;5016912;28;20452;-84
2022/02/16 00:23:52;;;;;;;2.23;1.67;;;16.70;49.50;;;;;;5017326;28;20434;-85
2022/02/16 00:26:20;;;;;;;1.80;1.70;;;16.70;49.80;;;;;;5017516;28;20448;-86
2022/02/16 00:28:48;;;;;;;2.17;1.73;;;16.80;49.60;;;;;;5016880;28;20413;-84
2022/02/16 00:31:16;;;;;;;1.97;1.87;;;16.80;49.70;;;;;;5016770;28;20484;-86
2022/02/16 00:33:45;;;;;;;1.97;1.63;;;16.80;49.70;;;;;;5013979;28;20469;-85
2022/02/16 00:36:13;;;;;;;1.57;1.47;;;16.80;49.60;;;;;;5016626;28;20449;-85
2022/02/16 00:38:41;;;;;;;1.87;1.77;;;16.70;49.60;;;;;;5016747;28;20480;-84
2022/02/16 00:41:09;;;;;;;1.73;1.60;;;16.80;49.80;;;;;;5016394;28;20442;-85
2022/02/16 00:43:37;;;;;;;2.67;1.70;;;16.80;49.70;;;;;;5016731;28;20433;-84
2022/02/16 00:46:05;;;;;;;1.60;1.50;;;16.80;49.60;;;;;;5017207;28;20450;-85
2022/02/16 00:48:33;;;;;;;2.20;1.40;;;16.80;49.80;;;;;;5016278;28;20480;-84
2022/02/16 00:51:04;;;;;;;1.90;1.73;;;16.80;49.70;;;;;;5017460;28;20433;-86
2022/02/16 00:53:32;;;;;;;1.80;1.70;;;16.80;49.80;;;;;;5014493;28;20465;-85
2022/02/16 00:56:00;;;;;;;4.20;1.80;;;16.80;49.80;;;;;;5016017;28;20472;-85
2022/02/16 00:58:28;;;;;;;1.83;1.73;;;16.70;49.80;;;;;;5016989;28;20425;-85
2022/02/16 01:00:56;;;;;;;2.07;1.97;;;16.70;49.80;;;;;;5011591;28;20446;-84
2022/02/16 01:03:23;;;;;;;2.30;1.57;;;16.80;49.90;;;;;;5015885;28;20437;-85
2022/02/16 01:05:51;;;;;;;2.10;1.90;;;16.80;49.90;;;;;;5015279;28;20488;-83
2022/02/16 01:08:21;;;;;;;2.20;1.90;;;16.80;49.90;;;;;;5016241;28;20413;-85
2022/02/16 01:10:49;;;;;;;2.00;1.90;;;16.80;49.90;;;;;;4998623;28;20520;-83
2022/02/16 01:13:17;;;;;;;2.50;1.70;;;16.80;49.80;;;;;;4993317;28;20473;-83
2022/02/16 01:15:45;;;;;;;2.13;1.93;;;16.80;49.90;;;;;;4994457;28;20449;-83
2022/02/16 01:18:13;;;;;;;1.73;1.63;;;16.80;50.00;;;;;;4994583;28;20508;-83
2022/02/16 01:20:41;;;;;;;1.87;1.77;;;16.80;49.90;;;;;;4992969;28;20841;-83
2022/02/16 01:23:09;;;;;;;2.10;2.00;;;16.80;49.90;;;;;;4986131;28;20437;-83
2022/02/16 01:25:39;;;;;;;2.17;1.97;;;16.80;50.00;;;;;;4993557;28;20481;-82
2022/02/16 01:28:07;;;;;;;2.20;2.00;;;16.80;50.10;;;;;;4995024;28;20529;-83
2022/02/16 01:30:35;;;;;;;2.23;2.10;;;16.80;49.90;;;;;;4996190;28;20453;-83
2022/02/16 01:33:03;;;;;;;2.60;1.90;;;16.80;50.00;;;;;;4994750;28;20445;-82
2022/02/16 01:35:32;;;;;;;1.93;1.70;;;16.80;50.00;;;;;;4994462;28;20491;-82
2022/02/16 01:38:02;;;;;;;2.53;2.07;;;16.90;50.00;;;;;;4997214;28;20449;-82
2022/02/16 01:40:30;;;;;;;2.00;1.80;;;16.90;50.10;;;;;;4996350;28;20438;-82
2022/02/16 01:43:01;;;;;;;2.87;1.70;;;16.80;50.00;;;;;;4997520;28;20441;-83
2022/02/16 01:45:29;;;;;;;2.00;1.90;;;16.80;50.00;;;;;;4996963;28;20464;-83
2022/02/16 01:47:57;;;;;;;2.10;1.70;;;16.80;50.00;;;;;;4997782;28;21009;-82
2022/02/16 01:50:25;;;;;;;2.07;1.83;;;16.80;50.10;;;;;;4999459;28;20485;-82
2022/02/16 01:52:53;;;;;;;2.03;1.93;;;16.90;50.20;;;;;;4997064;28;20549;-82
2022/02/16 01:55:21;;;;;;;2.47;2.13;;;16.80;50.10;;;;;;4998174;28;20969;-82
2022/02/16 01:57:49;;;;;;;1.90;1.80;;;16.80;50.10;;;;;;4999485;28;20453;-82
2022/02/16 02:00:19;;;;;;;2.13;1.90;;;16.80;50.10;;;;;;4999579;28;20461;-82
2022/02/16 02:02:47;;;;;;;1.90;1.80;;;16.80;50.10;;;;;;4999051;28;20430;-83
2022/02/16 02:05:15;;;;;;;2.30;2.10;;;16.80;50.10;;;;;;4999920;28;20461;-83
2022/02/16 02:07:43;;;;;;;2.13;2.03;;;16.80;50.20;;;;;;5000991;28;20576;-84
2022/02/16 02:10:11;;;;;;;2.50;2.20;;;16.80;50.30;;;;;;4994971;28;20442;-82
2022/02/16 02:12:45;;;;;;;1.93;1.83;;;16.80;50.30;;;;;;5003366;28;20437;-83
2022/02/16 02:15:14;;;;;;;2.13;2.03;;;16.80;50.30;;;;;;5003396;28;20547;-82
2022/02/16 02:17:43;;;;;;;2.40;2.30;;;16.80;50.40;;;;;;5003224;28;20426;-82
2022/02/16 02:20:22;;;;;;;2.60;2.40;;;16.80;50.40;;;;;;5003608;28;20449;-83
2022/02/16 02:22:50;;;;;;;4.00;2.33;;;16.80;50.30;;;;;;5003286;28;20445;-84
2022/02/16 02:25:18;;;;;;;2.30;2.17;;;16.80;50.40;;;;;;5002228;28;20497;-85
2022/02/16 02:27:46;;;;;;;4.50;2.27;;;16.80;50.40;;;;;;5001382;28;20452;-84
2022/02/16 02:30:14;;;;;;;2.90;2.37;;;16.80;50.50;;;;;;5001553;28;20445;-84
2022/02/16 02:32:42;;;;;;;2.60;2.30;;;16.80;50.50;;;;;;5001864;28;20441;-85
2022/02/16 02:35:11;;;;;;;2.20;2.00;;;16.80;50.40;;;;;;4990697;28;20473;-84
2022/02/16 02:37:41;;;;;;;2.80;2.10;;;16.80;50.40;;;;;;5001913;28;20441;-84
2022/02/16 02:40:10;;;;;;;2.60;2.40;;;16.80;50.50;;;;;;5002656;28;20438;-85
2022/02/16 02:42:38;;;;;;;2.73;2.23;;;16.80;50.50;;;;;;5002510;28;20457;-84
2022/02/16 02:45:07;;;;;;;3.17;2.00;;;16.80;50.50;;;;;;5004984;28;20507;-85
2022/02/16 02:47:35;;;;;;;2.73;2.23;;;16.80;50.40;;;;;;5004992;28;20445;-84
2022/02/16 02:50:04;;;;;;;2.43;2.33;;;16.80;50.50;;;;;;5003273;28;20440;-85
2022/02/16 02:52:35;;;;;;;2.13;2.03;;;16.80;50.50;;;;;;5005241;28;20492;-84
2022/02/16 02:55:05;;;;;;;2.57;2.23;;;16.70;50.50;;;;;;5002832;28;20504;-84
2022/02/16 02:57:33;;;;;;;2.43;2.33;;;16.80;50.60;;;;;;5006435;28;20445;-84
2022/02/16 03:00:03;;;;;;;3.10;2.80;;;16.80;50.70;;;;;;5005723;28;20449;-84
2022/02/16 03:02:32;;;;;;;2.60;2.40;;;16.80;50.70;;;;;;5006849;28;20535;-84
2022/02/16 03:05:01;;;;;;;2.43;2.23;;;16.80;51.30;;;;;;5006740;28;20461;-84
2022/02/16 03:07:29;;;;;;;2.53;2.33;;;16.80;50.80;;;;;;5007978;28;20472;-83
2022/02/16 03:09:57;;;;;;;2.43;2.33;;;16.80;50.80;;;;;;5009921;28;20484;-84
2022/02/16 03:12:27;;;;;;;2.83;2.43;;;16.80;50.70;;;;;;5008805;28;20437;-84
2022/02/16 03:14:55;;;;;;;2.20;2.10;;;16.80;50.80;;;;;;5008698;28;20642;-85
2022/02/16 03:17:24;;;;;;;2.30;2.20;;;16.80;50.80;;;;;;5008579;28;20472;-84
2022/02/16 03:19:53;;;;;;;2.10;2.00;;;16.80;50.80;;;;;;5017008;28;20472;-84
2022/02/16 03:22:21;;;;;;;2.43;2.23;;;16.80;50.70;;;;;;5016476;28;20502;-85
2022/02/16 03:24:51;;;;;;;2.53;2.33;;;16.80;50.80;;;;;;5015775;28;20486;-86
2022/02/16 03:27:19;;;;;;;2.90;2.57;;;16.80;50.70;;;;;;5015566;28;20491;-86
2022/02/16 03:29:49;;;;;;;3.70;2.90;;;16.80;50.80;;;;;;5016193;28;20437;-85
2022/02/16 03:32:17;;;;;;;3.20;2.53;;;16.80;50.80;;;;;;5015782;28;20445;-85
2022/02/16 03:34:45;;;;;;;3.17;2.97;;;16.80;50.80;;;;;;5015994;28;20472;-85
2022/02/16 03:37:13;;;;;;;2.40;2.30;;;16.80;50.80;;;;;;5016640;28;20445;-85
2022/02/16 03:39:41;;;;;;;2.27;2.17;;;16.80;50.90;;;;;;5017083;28;20445;-85
2022/02/16 03:42:09;;;;;;;2.07;1.97;;;16.80;50.80;;;;;;5016625;28;20457;-85
2022/02/16 03:44:37;;;;;;;2.20;2.10;;;16.80;50.90;;;;;;5016676;28;20452;-86
2022/02/16 03:47:06;;;;;;;2.23;2.13;;;16.80;50.80;;;;;;5015749;28;20437;-86
2022/02/16 03:49:34;;;;;;;2.67;2.57;;;16.70;50.80;;;;;;5015621;28;20441;-86
2022/02/16 03:52:02;;;;;;;2.90;2.40;;;16.70;50.90;;;;;;5016480;28;20425;-86
2022/02/16 03:54:30;;;;;;;2.63;2.43;;;16.70;51.00;;;;;;5016087;28;20581;-86
2022/02/16 03:56:58;;;;;;;2.50;2.40;;;16.70;50.90;;;;;;5016467;28;20465;-85
2022/02/16 03:59:25;;;;;;;4.10;2.73;;;16.70;50.90;;;;;;5016894;28;20469;-85
2022/02/16 04:01:54;;;;;;;2.60;2.40;;;16.70;50.90;;;;;;5017336;28;20449;-85
2022/02/16 04:04:23;;;;;;;2.63;2.43;;;16.70;51.00;;;;;;5015724;28;20457;-84
2022/02/16 04:06:51;;;;;;;2.60;2.50;;;16.70;51.10;;;;;;5016676;28;20462;-86
2022/02/16 04:09:19;;;;;;;2.70;2.50;;;16.70;51.00;;;;;;5017041;28;20441;-86
2022/02/16 04:11:47;;;;;;;2.60;2.40;;;16.70;51.10;;;;;;5017038;28;20507;-86
2022/02/16 04:14:15;;;;;;;2.50;2.40;;;16.70;51.10;;;;;;5016906;28;20445;-86
2022/02/16 04:16:46;;;;;;;2.57;2.37;;;16.70;51.10;;;;;;5017231;28;20445;-85
2022/02/16 04:19:15;;;;;;;2.87;2.50;;;16.70;51.10;;;;;;5017092;28;20455;-85
2022/02/16 04:21:44;;;;;;;3.20;2.33;;;16.70;51.10;;;;;;5016725;28;20472;-85
2022/02/16 04:24:12;;;;;;;2.73;2.53;;;16.70;51.10;;;;;;5017321;28;20434;-86
2022/02/16 04:26:43;;;;;;;3.13;2.83;;;16.80;51.10;;;;;;5013734;28;20485;-85
2022/02/16 04:29:10;;;;;;;5.43;2.50;;;16.70;51.00;;;;;;5017294;28;20473;-86
2022/02/16 04:31:38;;;;;;;2.73;2.53;;;16.70;51.20;;;;;;5017120;28;20433;-86
2022/02/16 04:34:07;;;;;;;3.30;2.67;;;16.70;51.10;;;;;;5016134;28;20472;-86
2022/02/16 04:36:35;;;;;;;2.70;2.53;;;16.70;51.20;;;;;;5016615;28;20527;-86
2022/02/16 04:39:04;;;;;;;3.03;2.37;;;16.70;51.20;;;;;;5015593;28;20429;-85
2022/02/16 04:41:32;;;;;;;2.60;2.40;;;16.70;51.10;;;;;;5017371;28;20414;-86
2022/02/16 04:44:00;;;;;;;2.60;2.30;;;16.70;51.10;;;;;;5017075;28;20421;-86
2022/02/16 04:46:28;;;;;;;2.33;2.23;;;16.70;51.10;;;;;;5017325;28;20501;-86
2022/02/16 04:48:56;;;;;;;3.33;3.00;;;16.70;51.70;;;;;;5016949;28;20414;-86
2022/02/16 04:51:24;;;;;;;2.30;2.20;;;16.70;51.30;;;;;;5017481;28;20519;-86
2022/02/16 04:53:52;;;;;;;2.53;2.43;;;16.70;51.20;;;;;;5016928;28;20425;-85
2022/02/16 04:56:21;;;;;;;2.53;2.43;;;16.70;51.40;;;;;;5016239;28;20477;-85
2022/02/16 04:58:49;;;;;;;2.47;2.37;;;16.70;51.20;;;;;;5017138;28;20426;-85
2022/02/16 05:01:20;;;;;;;2.13;2.03;;;16.70;51.20;;;;;;5016253;28;20478;-85
2022/02/16 05:03:48;;;;;;;3.27;2.70;;;16.70;51.20;;;;;;5016474;28;20465;-85
2022/02/16 05:06:18;;;;;;;2.60;2.40;;;16.70;51.40;;;;;;5016821;28;20480;-86
2022/02/16 05:08:46;;;;;;;2.70;2.50;;;16.70;51.50;;;;;;5016487;28;20421;-85
2022/02/16 05:11:13;;;;;;;2.00;1.90;;;16.70;51.50;;;;;;5017111;28;20441;-86
2022/02/16 05:13:43;;;;;;;2.20;2.10;;;16.70;51.40;;;;;;5016332;28;20433;-85
2022/02/16 05:16:11;;;;;;;2.70;2.50;;;16.70;51.40;;;;;;5015646;28;20493;-85
2022/02/16 05:18:39;;;;;;;2.87;2.67;;;16.70;51.60;;;;;;5017203;28;20447;-85
2022/02/16 05:21:06;;;;;;;2.33;2.23;;;16.70;51.60;;;;;;5016736;28;20437;-86
2022/02/16 05:23:34;;;;;;;3.73;2.40;;;16.70;51.50;;;;;;5016390;28;20445;-85
2022/02/16 05:26:02;;;;;;;2.70;2.50;;;16.70;51.60;;;;;;5016496;28;20500;-85
2022/02/16 05:28:30;;;;;;;2.30;2.20;;;16.70;51.60;;;;;;5016765;28;20445;-85
2022/02/16 05:31:00;;;;;;;2.07;1.97;;;16.70;51.50;;;;;;5015783;28;20469;-85
2022/02/16 05:33:28;;;;;;;2.30;2.17;;;16.70;51.40;;;;;;5017050;28;20437;-85
2022/02/16 05:35:57;;;;;;;3.30;2.70;;;16.70;51.60;;;;;;5016467;28;20646;-86
2022/02/16 05:38:25;;;;;;;2.93;2.13;;;16.70;51.80;;;;;;5016444;28;20442;-85
2022/02/16 05:40:53;;;;;;;2.57;2.37;;;16.70;51.60;;;;;;5016739;28;20430;-86
2022/02/16 05:43:21;;;;;;;1.90;1.80;;;16.70;51.70;;;;;;5016761;28;20433;-85
2022/02/16 05:45:49;;;;;;;1.90;1.80;;;16.70;51.60;;;;;;5017198;28;20477;-85
2022/02/16 05:48:20;;;;;;;2.03;1.93;;;16.70;51.60;;;;;;5016508;28;20509;-85
2022/02/16 05:50:49;;;;;;;2.17;2.07;;;16.70;51.60;;;;;;5016926;28;20460;-85
2022/02/16 05:53:16;;;;;;;2.43;2.23;;;16.70;51.60;;;;;;5017145;28;20441;-86
2022/02/16 05:55:44;;;;;;;2.00;1.90;;;16.70;51.70;;;;;;5017300;28;20465;-86
2022/02/16 05:58:12;;;;;;;1.80;1.70;;;16.70;51.70;;;;;;5017000;28;20429;-85
2022/02/16 06:00:40;;;;;;;2.90;1.83;;;16.70;51.70;;;;;;5017109;28;20468;-85
2022/02/16 06:03:08;;;;;;;1.90;1.80;;;16.70;51.70;;;;;;5016667;28;20426;-85
2022/02/16 06:05:38;;;;;;;2.13;2.03;;;16.70;51.60;;;;;;5015921;28;20472;-85
2022/02/16 06:08:06;;;;;;;2.30;2.10;;;16.70;51.80;;;;;;5016777;28;20434;-85
2022/02/16 06:10:34;;;;;;;2.27;2.07;;;16.70;51.80;;;;;;5016671;28;20504;-85
2022/02/16 06:13:03;;;;;;;1.97;1.80;;;16.70;51.70;;;;;;5016769;28;20474;-86
2022/02/16 06:15:31;;;;;;;1.50;1.50;;;16.70;51.90;;;;;;5016819;28;20458;-86
2022/02/16 06:17:59;;;;;;;1.87;1.77;;;16.70;51.80;;;;;;5016889;28;20418;-86
2022/02/16 06:20:27;;;;;;;1.97;1.87;;;16.70;51.90;;;;;;5016065;28;20460;-86
2022/02/16 06:22:56;;;;;;;1.80;1.70;;;16.70;51.80;;;;;;5016368;28;20472;-86
2022/02/16 06:25:25;;;;;;;1.87;1.77;;;16.70;51.80;;;;;;5016129;28;20445;-85
2022/02/16 06:27:52;;;;;;;1.87;1.77;;;16.70;52.00;;;;;;5016638;28;20440;-86
2022/02/16 06:30:20;;;;;;;1.90;1.80;;;16.70;51.90;;;;;;5016219;28;20476;-85
2022/02/16 06:32:48;;;;;;;2.00;1.90;;;16.70;51.80;;;;;;5016377;28;20441;-86
2022/02/16 06:35:16;;;;;;;1.87;1.77;;;16.70;51.90;;;;;;5016056;28;20453;-85
2022/02/16 06:37:45;;;;;;;1.87;1.77;;;16.70;52.00;;;;;;5015597;28;20484;-86
2022/02/16 06:40:14;;;;;;;1.80;1.70;;;16.70;52.20;;;;;;5016142;28;20435;-85
2022/02/16 06:42:42;;;;;;;1.90;1.80;;;16.70;52.20;;;;;;5016389;28;20449;-86
2022/02/16 06:45:12;;;;;;;2.03;1.83;;;16.70;52.20;;;;;;5015801;28;20449;-86
2022/02/16 06:47:40;;;;;;;1.90;1.80;;;16.70;52.10;;;;;;5016342;28;20438;-85
2022/02/16 06:50:09;;;;;;;1.80;1.70;;;16.70;52.20;;;;;;5016603;28;20445;-85
2022/02/16 06:52:37;;;;;;;1.70;1.60;;;16.70;52.20;;;;;;5016510;28;20445;-86
2022/02/16 06:55:06;;;;;;;2.20;2.00;;;16.70;52.30;;;;;;5015235;28;20480;-86
2022/02/16 06:57:35;;;;;;;3.10;1.80;;;16.70;52.30;;;;;;5016071;28;20457;-85
2022/02/16 07:00:03;;;;;;;2.70;2.30;;;16.70;52.30;;;;;;5016637;28;20461;-86
2022/02/16 07:02:32;;;;;;;1.90;1.80;;;16.70;52.20;;;;;;5016495;28;20476;-85
2022/02/16 07:05:00;;;;;;;1.60;1.50;;;16.70;52.40;;;;;;5016722;28;20445;-85
2022/02/16 07:07:30;;;;;;;2.07;1.97;;;16.70;52.20;;;;;;5016841;28;20453;-85
2022/02/16 07:09:58;;;;;;;2.07;1.97;;;16.70;52.20;;;;;;5016059;28;20426;-86
2022/02/16 07:12:26;;;;;;;2.80;1.57;;;16.80;52.40;;;;;;5010316;28;20445;-85
2022/02/16 07:14:56;;;;;;;1.60;1.50;;;16.70;53.00;;;;;;5015427;28;20452;-85
2022/02/16 07:17:24;;;;;;;1.63;1.50;;;16.70;52.30;;;;;;5015277;28;20476;-85
2022/02/16 07:19:52;;;;;;;2.03;1.93;;;16.70;52.40;;;;;;5015550;28;20429;-85
2022/02/16 07:22:22;;;;;;;2.00;1.90;;;16.80;52.50;;;;;;5015458;28;20445;-85
2022/02/16 07:24:50;;;;;;;1.70;1.70;;;16.80;52.50;;;;;;5015394;28;20465;-85
2022/02/16 07:27:18;;;;;;;2.90;1.63;;;16.80;52.40;;;;;;5015127;28;20461;-85
2022/02/16 07:29:46;;;;;;;2.17;1.60;;;16.80;52.40;;;;;;5015997;28;20442;-85
2022/02/16 07:32:15;;;;;;;1.80;1.70;;;16.80;52.40;;;;;;5016055;28;20426;-86
2022/02/16 07:34:43;;;;;;;1.47;1.47;;;16.80;52.50;;;;;;5015755;28;20449;-85
2022/02/16 07:37:11;;;;;;;1.57;1.50;;;16.80;52.50;;;;;;5015480;28;20473;-86
2022/02/16 07:39:39;;;;;;;1.70;1.60;;;16.80;52.60;;;;;;5016177;28;20441;-86
2022/02/16 07:42:07;;;;;;;1.93;1.83;;;16.80;52.70;;;;;;5015012;28;20504;-85
2022/02/16 07:44:35;;;;;;;1.93;1.83;;;16.80;52.70;;;;;;5016197;28;20457;-86
2022/02/16 07:47:08;;;;;;;1.70;1.60;;;16.80;52.70;;;;;;5016518;28;20452;-86
2022/02/16 07:49:38;;;;;;;2.17;2.07;;;16.80;52.70;;;;;;5016463;28;20444;-86
2022/02/16 07:52:06;;;;;;;1.90;1.80;;;16.80;52.70;;;;;;5016336;28;20433;-86
2022/02/16 07:54:34;;;;;;;1.53;1.50;;;16.80;52.80;;;;;;5016450;28;20430;-86
2022/02/16 07:57:02;;;;;;;1.40;1.30;;;16.90;52.80;;;;;;5016725;28;20484;-86
2022/02/16 07:59:32;;;;;;;1.60;1.57;;;16.80;52.70;;;;;;5015967;28;20413;-86
2022/02/16 08:02:02;;;;;;;1.60;1.50;;;16.80;52.80;;;;;;5017046;28;20433;-85
2022/02/16 08:04:31;;;;;;;1.43;1.43;;;16.90;52.90;;;;;;5020042;28;20445;-86
2022/02/16 08:07:01;;;;;;;1.90;1.80;;;16.80;52.90;;;;;;5020313;28;20417;-85
2022/02/16 08:09:29;;;;;;;1.60;1.50;;;16.80;52.80;;;;;;5020083;28;20492;-86
2022/02/16 08:11:57;;;;;;;1.60;1.50;;;16.80;53.00;;;;;;5020168;28;20429;-86
2022/02/16 08:14:26;;;;;;;1.30;1.30;;;16.90;53.20;;;;;;5019505;28;20457;-86
2022/02/16 08:16:55;;;;;;;1.50;1.50;;;16.90;53.20;;;;;;5018753;28;20484;-85
2022/02/16 08:19:24;;;;;;;2.83;1.40;;;16.90;53.30;;;;;;5019646;28;20425;-85
2022/02/16 08:21:55;;;;;;;1.60;1.60;;;16.90;53.10;;;;;;5019675;28;20425;-85
2022/02/16 08:24:25;;;;;;;1.70;1.60;;;16.90;53.20;;;;;;5019587;28;20500;-85
2022/02/16 08:26:53;;;;;;;1.37;1.37;;;17.00;53.40;;;;;;5019124;28;20437;-85
2022/02/16 08:29:22;;;;;;;1.70;1.60;;;16.90;53.20;;;;;;5018806;28;20461;-86
2022/02/16 08:31:55;;;;;;;1.40;1.40;;;16.90;53.40;;;;;;5018111;28;20461;-85
2022/02/16 08:34:23;;;;;;;1.50;1.40;;;16.90;53.40;;;;;;5018587;28;20492;-85
2022/02/16 08:36:55;;;;;;;1.30;1.30;;;17.00;53.30;;;;;;5018601;28;20473;-86
2022/02/16 08:39:26;;;;;;;1.20;1.20;;;17.00;53.30;;;;;;5018275;28;20426;-85
2022/02/16 08:41:54;;;;;;;1.40;1.30;;;17.00;53.40;;;;;;5017910;28;20441;-86
2022/02/16 08:44:21;;;;;;;1.30;1.20;;;17.00;53.30;;;;;;5018291;28;20478;-85
2022/02/16 08:46:50;;;;;;;1.40;1.40;;;17.10;53.50;;;;;;5018049;28;20472;-85
2022/02/16 08:49:18;;;;;;;1.30;1.20;;;17.00;53.30;;;;;;5016924;28;20472;-86
2022/02/16 08:51:46;;;;;;;1.10;1.10;;;17.10;53.40;;;;;;5018224;28;20410;-85
2022/02/16 08:54:14;;;;;;;1.27;1.27;;;17.10;53.40;;;;;;5017655;28;20429;-85
2022/02/16 08:56:45;;;;;;;1.10;1.10;;;17.00;53.50;;;;;;5017644;28;20429;-87
2022/02/16 08:59:13;;;;;;;1.10;1.10;;;17.00;53.70;;;;;;5017989;28;20429;-85
2022/02/16 09:01:43;;;;;;;1.10;1.10;;;17.10;53.70;;;;;;5006783;28;20459;-85
2022/02/16 09:04:11;;;;;;;1.50;1.40;;;17.10;53.60;;;;;;5014879;28;20445;-86
2022/02/16 09:07:27;;;;;;;1.27;1.27;;;17.10;53.80;;;;;;5004547;28;20453;-84
2022/02/16 09:09:27;;;;;;;1.40;1.30;;;17.10;53.70;;;;;;4995791;28;20433;-85
2022/02/16 09:11:56;;;;;;;1.23;1.23;;;17.20;53.80;;;;;;4995670;28;20492;-84
2022/02/16 09:14:24;;;;;;;1.10;1.10;;;17.20;53.60;;;;;;4994709;28;20465;-84
2022/02/16 09:16:52;;;;;;;1.07;1.07;;;17.20;53.70;;;;;;4997640;28;20434;-84
2022/02/16 09:19:20;;;;;;;1.10;1.00;;;17.10;53.70;;;;;;4999139;28;20473;-84
2022/02/16 09:21:49;;;;;;;1.30;1.00;;;17.20;53.90;;;;;;4996565;28;20457;-85
2022/02/16 09:24:17;;;;;;;0.90;0.90;;;17.10;53.70;;;;;;5003758;28;20449;-84
2022/02/16 09:26:49;;;;;;;1.40;1.30;;;17.20;53.90;;;;;;5001943;28;20445;-84
2022/02/16 09:29:19;;;;;;;1.07;1.00;;;17.20;53.90;;;;;;5006419;28;20429;-84
2022/02/16 09:31:48;;;;;;;0.93;0.93;;;17.20;53.70;;;;;;5005213;28;20453;-84
2022/02/16 09:34:16;;;;;;;0.90;0.90;;;17.20;53.80;;;;;;5006608;28;20449;-84
2022/02/16 09:36:44;;;;;;;1.20;1.00;;;17.20;53.80;;;;;;4997522;28;20445;-84
2022/02/16 09:39:12;;;;;;;0.90;0.90;;;17.20;53.70;;;;;;4997914;28;20889;-84
2022/02/16 09:41:43;;;;;;;1.07;1.07;;;17.30;53.90;;;;;;4998649;28;20453;-84
2022/02/16 09:44:15;;;;;;;1.00;1.00;;;17.40;53.90;;;;;;4999002;28;20441;-84
2022/02/16 09:46:44;;;;;;;2.00;1.00;;;17.40;53.60;;;;;;5001459;28;20484;-84
2022/02/16 09:49:12;;;;;;;2.20;0.90;;;17.60;53.70;;;;;;5003328;28;20446;-83
2022/02/16 09:51:40;;;;;;;0.87;0.87;;;17.50;53.50;;;;;;5003559;28;20499;-83
2022/02/16 09:54:10;;;;;;;1.10;1.10;;;17.50;53.60;;;;;;5003673;28;20484;-83
2022/02/16 09:56:42;;;;;;;0.80;0.80;;;17.50;53.70;;;;;;5004257;28;20430;-83
2022/02/16 09:59:11;;;;;;;2.03;0.90;;;17.60;53.90;;;;;;5004857;28;20484;-83
2022/02/16 10:01:56;;;;;;;1.20;1.10;;;17.60;53.60;;;;;;5007379;28;20450;-83
2022/02/16 10:04:25;;;;;;;0.90;0.90;;;17.60;53.70;;;;;;5007576;28;20464;-83
2022/02/16 10:06:53;;;;;;;1.00;1.00;;;17.60;53.60;;;;;;5008468;28;20430;-83
2022/02/16 10:09:28;;;;;;;0.90;0.90;;;17.60;53.70;;;;;;5009185;28;20445;-84
2022/02/16 10:11:57;;;;;;;0.87;0.87;;;17.70;53.70;;;;;;5009335;28;20487;-84
2022/02/16 10:14:27;;;;;;;1.10;1.10;;;17.70;53.50;;;;;;5009354;28;20453;-83
2022/02/16 10:16:56;;;;;;;1.10;1.10;;;17.70;53.60;;;;;;5010532;28;20441;-83
2022/02/16 10:19:24;;;;;;;0.90;0.90;;;17.70;53.60;;;;;;5010127;28;20476;-84
2022/02/16 10:22:03;;;;;;;0.90;0.90;;;17.70;53.70;;;;;;5010903;28;20491;-84
2022/02/16 10:24:31;;;;;;;1.03;0.80;;;17.70;53.70;;;;;;5010513;28;20457;-84
2022/02/16 10:26:59;;;;;;;0.90;0.90;;;17.80;53.80;;;;;;5011504;28;20480;-83
2022/02/16 10:29:28;;;;;;;0.97;0.97;;;17.70;53.60;;;;;;5010923;28;20508;-84
2022/02/16 10:31:58;;;;;;;1.00;1.00;;;17.70;53.50;;;;;;5011057;28;20444;-84
2022/02/16 10:34:46;;;;;;;1.10;1.10;;;17.70;53.60;;;;;;5011047;28;20480;-83
2022/02/16 10:37:15;;;;;;;0.80;0.80;;;17.70;53.70;;;;;;5011031;28;20438;-84
2022/02/16 10:39:42;;;;;;;0.77;0.77;;;17.80;53.80;;;;;;5010225;28;20469;-83
2022/02/16 10:42:11;;;;;;;0.93;0.93;;;17.80;53.60;;;;;;5010792;28;20456;-83
2022/02/16 10:44:40;;;;;;;0.80;0.80;;;17.80;53.60;;;;;;5010547;28;20469;-83
2022/02/16 10:47:12;;;;;;;0.80;0.80;;;17.80;53.60;;;;;;5009969;28;20508;-84
2022/02/16 10:49:40;;;;;;;0.83;0.83;;;17.90;53.70;;;;;;5010788;28;20437;-83
2022/02/16 10:52:15;;;;;;;0.97;0.90;;;17.90;53.60;;;;;;5007121;28;20452;-84
2022/02/16 10:54:51;;;;;;;0.90;0.90;;;17.90;53.60;;;;;;5007784;28;20450;-84
2022/02/16 10:57:19;;;;;;;0.90;0.90;;;17.90;53.60;;;;;;5008555;28;20441;-83
2022/02/16 10:59:47;;;;;;;0.90;0.90;;;18.00;53.40;;;;;;5007662;28;20476;-83
2022/02/16 11:02:18;;;;;;;0.90;0.90;;;17.90;53.60;;;;;;5007923;28;20449;-83
2022/02/16 11:04:47;;;;;;;0.73;0.73;;;17.90;53.50;;;;;;5006484;28;20473;-81
2022/02/16 11:07:19;;;;;;;1.00;0.90;;;17.90;53.40;;;;;;5007622;28;20433;-84
2022/02/16 11:09:49;;;;;;;1.00;0.90;;;18.00;53.50;;;;;;5008435;28;20472;-83
2022/02/16 11:12:20;;;;;;;0.83;0.83;;;18.00;53.60;;;;;;5005786;28;20445;-83
2022/02/16 11:14:47;;;;;;;0.80;0.80;;;18.00;53.50;;;;;;5010066;28;20492;-84
2022/02/16 11:17:15;;;;;;;2.10;1.00;;;18.00;53.60;;;;;;5009242;28;20477;-83
2022/02/16 11:19:46;;;;;;;0.87;0.87;;;18.00;53.50;;;;;;5010018;28;20485;-83
2022/02/16 11:22:18;;;;;;;0.97;0.97;;;18.00;53.60;;;;;;5011134;28;20428;-82
2022/02/16 11:24:49;;;;;;;0.80;0.80;;;18.10;53.70;;;;;;5010674;28;21032;-83
2022/02/16 11:27:28;;;;;;;1.00;1.00;;;18.20;53.40;;;;;;5007829;28;20842;-84
2022/02/16 11:29:57;;;;;;;3.77;1.00;;;18.20;53.50;;;;;;5010228;28;20441;-82
2022/02/16 11:32:33;;;;;;;1.00;1.00;;;18.20;53.50;;;;;;5013552;28;20445;-84
2022/02/16 11:35:26;;;;;;;1.40;1.30;;;18.30;53.50;;;;;;5014072;28;20523;-83
2022/02/16 11:38:07;;;;;;;1.00;1.00;;;18.30;53.50;;;;;;5013510;28;20437;-84
2022/02/16 11:40:37;;;;;;;1.43;0.90;;;18.30;53.40;;;;;;5013743;28;20509;-85
2022/02/16 11:43:05;;;;;;;1.10;1.00;;;18.30;53.30;;;;;;5010408;28;20438;-84
2022/02/16 11:46:00;;;;;;;1.53;1.10;;;18.40;53.40;;;;;;5016865;28;20464;-84
2022/02/16 11:48:37;;;;;;;2.00;1.10;;;18.50;53.40;;;;;;5008610;28;20445;-84
2022/02/16 11:51:39;;;;;;;1.73;1.03;;;18.40;53.40;;;;;;5017779;28;20407;-84
2022/02/16 11:54:52;;;;;;;1.10;0.93;;;18.50;53.40;;;;;;5012572;28;20476;-84
2022/02/16 11:57:39;;;;;;;1.00;0.90;;;18.50;53.50;;;;;;5011551;28;20447;-84
2022/02/16 12:00:11;;;;;;;1.10;1.00;;;18.50;53.60;;;;;;5011988;28;20473;-83
2022/02/16 12:03:17;;;;;;;1.27;0.97;;;18.50;53.60;;;;;;5011209;28;20468;-82
2022/02/16 12:05:59;;;;;;;0.77;0.77;;;18.50;53.70;;;;;;5011126;28;20491;-82
2022/02/16 12:08:30;;;;;;;0.97;0.97;;;18.50;53.80;;;;;;5010137;28;20445;-83
2022/02/16 12:10:59;;;;;;;1.17;1.07;;;18.50;53.80;;;;;;5007500;28;20477;-83
2022/02/16 12:13:32;;;;;;;1.20;1.10;;;18.50;53.90;;;;;;5013475;28;20441;-84
2022/02/16 12:16:01;;;;;;;1.33;1.10;;;18.50;53.90;;;;;;5013571;28;20486;-83
2022/02/16 12:18:29;;;;;;;1.43;1.10;;;18.60;54.20;;;;;;5012171;28;20433;-83
2022/02/16 12:20:57;;;;;;;1.37;1.10;;;18.60;54.20;;;;;;5013467;28;20469;-83
2022/02/16 12:23:26;;;;;;;1.97;0.90;;;18.60;54.20;;;;;;5008688;28;20445;-84
2022/02/16 12:26:08;;;;;;;2.30;1.10;;;18.60;54.20;;;;;;5006542;28;20465;-83
2022/02/16 12:28:49;;;;;;;1.23;1.13;;;18.60;54.20;;;;;;5003736;28;20524;-84
2022/02/16 12:31:17;;;;;;;2.27;1.60;;;18.60;54.30;;;;;;4998749;28;20425;-83
2022/02/16 12:33:52;;;;;;;2.10;1.10;;;18.60;54.20;;;;;;5005122;28;20453;-83
2022/02/16 12:36:20;;;;;;;2.30;0.93;;;18.60;54.30;;;;;;5004658;28;20496;-83
2022/02/16 12:38:48;;;;;;;1.63;1.23;;;18.70;54.40;;;;;;5005928;28;20433;-83
2022/02/16 12:41:21;;;;;;;1.67;1.50;;;18.70;54.40;;;;;;5005887;28;20449;-83
2022/02/16 12:43:54;;;;;;;1.53;1.20;;;18.70;54.40;;;;;;5006097;28;20481;-82
2022/02/16 12:46:23;;;;;;;1.30;1.20;;;18.70;54.40;;;;;;5011084;28;20943;-82
2022/02/16 12:48:51;;;;;;;1.63;1.20;;;18.70;54.50;;;;;;5006209;28;20461;-82
2022/02/16 12:51:23;;;;;;;2.50;1.40;;;18.70;54.40;;;;;;5009097;28;20425;-83
2022/02/16 12:53:51;;;;;;;2.27;1.50;;;18.70;54.40;;;;;;5013226;28;20449;-83
2022/02/16 12:56:21;;;;;;;1.40;1.30;;;18.80;54.50;;;;;;5011442;28;20472;-83
2022/02/16 12:58:49;;;;;;;2.13;1.50;;;18.80;54.50;;;;;;5012452;28;20414;-83
2022/02/16 13:01:17;;;;;;;5.23;1.40;;;18.80;54.50;;;;;;5014017;28;20457;-84